Time;durP1;ratioP1;P1;durP2;ratioP2;P2;SDS_P1;SDS_P2;PMS_P1;PMS_P2;Temp;Humidity;BMP_temperature;BMP_pressure;BME280_temperature;BME280_humidity;BME280_pressure;Samples;Min_cycle;Max_cycle;Signal;HPM_P1;HPM_P2
2021/09/24 00:02:13;;;;;;;5.07;4.87;;;;;;;16.10;81.83;101288.50;4412930;32;20565;-67
2021/09/24 00:04:38;;;;;;;5.18;4.97;;;;;;;16.02;81.71;101273.13;4411524;32;20088;-67
2021/09/24 00:07:04;;;;;;;12.13;5.72;;;;;;;16.08;82.36;101283.31;4415725;32;20585;-67
2021/09/24 00:09:29;;;;;;;4.72;4.53;;;;;;;16.11;81.50;101280.44;4390455;32;20068;-66
2021/09/24 00:11:55;;;;;;;4.68;4.47;;;;;;;16.08;81.79;101280.66;4411796;32;20161;-67
2021/09/24 00:14:20;;;;;;;5.03;4.82;;;;;;;16.09;82.51;101281.50;4396764;32;20065;-67
2021/09/24 00:16:45;;;;;;;5.35;5.05;;;;;;;16.07;82.98;101273.66;4412265;32;20069;-66
2021/09/24 00:19:11;;;;;;;4.90;4.70;;;;;;;16.09;82.93;101276.22;4409526;32;20070;-67
2021/09/24 00:21:36;;;;;;;6.35;6.05;;;;;;;16.10;82.65;101276.12;4408528;32;20341;-68
2021/09/24 00:24:02;;;;;;;6.40;6.10;;;;;;;16.13;81.73;101277.69;4410162;32;20088;-66
2021/09/24 00:26:27;;;;;;;5.10;4.90;;;;;;;16.09;83.11;101273.56;4409887;32;20084;-67
2021/09/24 00:28:53;;;;;;;6.57;6.28;;;;;;;16.10;82.86;101270.81;4403130;32;20155;-67
2021/09/24 00:31:18;;;;;;;5.05;4.85;;;;;;;16.11;82.67;101282.25;4382325;32;20073;-67
2021/09/24 00:33:44;;;;;;;4.90;4.70;;;;;;;16.06;82.65;101271.97;4407041;32;20093;-68
2021/09/24 00:36:09;;;;;;;5.00;4.80;;;;;;;16.11;82.43;101282.25;4408286;32;20084;-68
2021/09/24 00:38:40;;;;;;;4.90;4.70;;;;;;;16.10;82.76;101278.75;4404204;32;20057;-67
2021/09/24 00:41:06;;;;;;;4.87;4.68;;;;;;;16.11;82.67;101282.25;4408187;32;20669;-66
2021/09/24 00:43:32;;;;;;;5.00;4.80;;;;;;;16.08;82.52;101280.66;4401954;32;20058;-67
2021/09/24 00:45:58;;;;;;;6.50;6.20;;;;;;;16.05;83.70;101278.19;4408516;32;20265;-67
2021/09/24 00:48:23;;;;;;;4.80;4.60;;;;;;;16.01;82.69;101270.56;4402397;32;20527;-67
2021/09/24 00:50:48;;;;;;;5.85;5.57;;;;;;;15.95;82.88;101255.94;4400669;32;21141;-68
2021/09/24 00:53:14;;;;;;;4.90;4.70;;;;;;;16.03;83.93;101269.50;4391223;32;20764;-67
2021/09/24 00:55:39;;;;;;;4.90;4.70;;;;;;;16.02;84.08;101275.78;4401988;32;20093;-67
2021/09/24 00:58:05;;;;;;;5.20;4.95;;;;;;;16.00;84.14;101272.38;4388149;32;20073;-67
2021/09/24 01:00:30;;;;;;;4.87;4.68;;;;;;;16.03;83.08;101271.31;4391030;32;20619;-67
2021/09/24 01:02:55;;;;;;;6.03;5.72;;;;;;;16.03;82.87;101273.97;4407879;32;20488;-67
2021/09/24 01:05:21;;;;;;;4.80;4.60;;;;;;;15.99;84.21;101267.19;4411011;32;20614;-67
2021/09/24 01:07:46;;;;;;;5.25;5.05;;;;;;;15.95;84.41;101272.66;4408624;32;20057;-68
2021/09/24 01:10:12;;;;;;;4.85;4.65;;;;;;;15.97;83.55;101266.44;4407909;32;20064;-67
2021/09/24 01:12:38;;;;;;;5.53;5.22;;;;;;;15.91;83.62;101250.00;4408188;32;20825;-67
2021/09/24 01:15:05;;;;;;;4.85;4.65;;;;;;;15.97;84.23;101263.78;4406551;32;20073;-67
2021/09/24 01:17:31;;;;;;;4.90;4.70;;;;;;;15.97;84.26;101269.09;4394495;32;20076;-67
2021/09/24 01:19:56;;;;;;;6.60;6.30;;;;;;;15.86;83.96;101253.91;4411324;32;20073;-67
2021/09/24 01:22:22;;;;;;;5.15;4.85;;;;;;;15.95;84.30;101266.53;4415463;32;20611;-66
2021/09/24 01:24:47;;;;;;;5.47;5.25;;;;;;;15.95;83.83;101263.87;4413508;32;20131;-69
2021/09/24 01:27:13;;;;;;;6.43;6.07;;;;;;;15.94;84.03;101259.56;4391237;32;20496;-69
2021/09/24 01:29:38;;;;;;;4.87;4.68;;;;;;;15.85;84.00;101233.69;4407448;32;20678;-69
2021/09/24 01:32:04;;;;;;;5.72;5.50;;;;;;;15.94;84.79;101255.09;4393797;32;20077;-68
2021/09/24 01:34:29;;;;;;;5.15;4.95;;;;;;;15.89;83.87;101248.41;4406965;32;20658;-66
2021/09/24 01:36:54;;;;;;;6.07;5.78;;;;;;;15.17;84.31;101129.56;4382593;32;20802;-67
2021/09/24 01:39:20;;;;;;;5.57;4.90;;;;;;;15.91;84.83;101257.94;4409495;32;20077;-67
2021/09/24 01:41:46;;;;;;;4.93;4.72;;;;;;;14.65;84.13;101043.91;4411104;32;20070;-67
2021/09/24 01:44:12;;;;;;;5.20;5.00;;;;;;;15.92;84.79;101250.87;4410254;32;20088;-68
2021/09/24 01:46:38;;;;;;;4.90;4.70;;;;;;;15.91;84.10;101249.16;4400430;32;20066;-66
2021/09/24 01:49:03;;;;;;;6.82;6.53;;;;;;;15.90;84.68;101250.13;4407025;32;20072;-67
2021/09/24 01:51:29;;;;;;;5.62;5.32;;;;;;;15.88;84.92;101252.84;4404764;32;20610;-67
2021/09/24 01:53:54;;;;;;;6.55;6.25;;;;;;;15.89;84.52;101254.53;4402744;32;20210;-67
2021/09/24 01:56:22;;;;;;;5.43;5.22;;;;;;;15.89;85.26;101249.25;4399360;32;20501;-67
2021/09/24 01:58:48;;;;;;;5.85;5.55;;;;;;;15.90;84.69;101250.13;4393750;32;20073;-67
2021/09/24 02:01:13;;;;;;;5.37;5.07;;;;;;;15.87;84.88;101251.13;4393750;32;20081;-67
2021/09/24 02:03:39;;;;;;;5.40;5.10;;;;;;;15.87;84.48;101245.84;4406078;32;20070;-67
2021/09/24 02:06:04;;;;;;;5.70;5.40;;;;;;;15.87;84.38;101247.66;4386383;32;21148;-67
2021/09/24 02:08:29;;;;;;;5.20;5.00;;;;;;;15.84;84.58;101246.06;4410935;32;20080;-67
2021/09/24 02:10:55;;;;;;;7.35;6.95;;;;;;;15.84;85.08;101238.13;4378203;32;20080;-67
2021/09/24 02:13:20;;;;;;;5.53;5.12;;;;;;;15.81;85.46;101233.03;4413359;32;20609;-66
2021/09/24 02:15:45;;;;;;;5.87;5.57;;;;;;;15.80;85.35;101236.63;4404187;32;20076;-68
2021/09/24 02:18:11;;;;;;;5.70;5.40;;;;;;;15.78;85.67;101237.69;4387942;32;20249;-67
2021/09/24 02:20:36;;;;;;;5.55;5.25;;;;;;;15.70;85.31;101214.34;4406165;32;20587;-67
2021/09/24 02:23:01;;;;;;;7.80;7.07;;;;;;;15.78;86.08;101238.53;4405011;32;20107;-66
2021/09/24 02:25:27;;;;;;;5.85;5.55;;;;;;;15.75;86.08;101234.28;4396126;32;20132;-67
2021/09/24 02:27:52;;;;;;;5.10;4.90;;;;;;;15.74;86.37;101237.03;4404207;32;20468;-66
2021/09/24 02:30:17;;;;;;;5.82;5.43;;;;;;;15.74;86.08;101235.22;4398238;32;20068;-67
2021/09/24 02:32:43;;;;;;;6.00;5.43;;;;;;;15.73;86.21;101235.31;4414726;32;20212;-67
2021/09/24 02:35:08;;;;;;;5.05;4.85;;;;;;;15.67;86.87;101225.09;4395516;32;20575;-67
2021/09/24 02:37:34;;;;;;;5.15;4.95;;;;;;;15.70;86.33;101240.81;4419118;32;20064;-67
2021/09/24 02:39:59;;;;;;;7.12;6.72;;;;;;;15.70;86.52;101236.34;4415169;32;20464;-67
2021/09/24 02:42:25;;;;;;;6.25;5.95;;;;;;;15.70;86.02;101241.66;4418395;32;20091;-67
2021/09/24 02:44:50;;;;;;;9.05;6.43;;;;;;;15.72;86.83;101241.56;4421176;32;20130;-67
2021/09/24 02:47:15;;;;;;;5.95;5.55;;;;;;;15.70;86.95;101235.50;4403654;32;20428;-67
2021/09/24 02:49:42;;;;;;;5.20;4.90;;;;;;;15.61;86.80;101220.22;4421536;32;20077;-67
2021/09/24 02:52:07;;;;;;;5.70;5.45;;;;;;;15.69;86.50;101233.78;4399894;32;20484;-67
2021/09/24 02:54:33;;;;;;;5.60;5.30;;;;;;;15.62;87.40;101217.47;4415933;32;20073;-67
2021/09/24 02:56:58;;;;;;;6.50;6.20;;;;;;;15.58;86.89;101209.84;4421394;32;20068;-67
2021/09/24 02:59:23;;;;;;;5.07;4.87;;;;;;;15.67;86.58;101222.47;4409476;32;20579;-67
2021/09/24 03:01:49;;;;;;;6.80;6.47;;;;;;;15.62;86.49;101221.94;4406799;32;20091;-67
2021/09/24 03:04:14;;;;;;;5.75;5.45;;;;;;;15.63;87.04;101224.44;4400892;32;20077;-67
2021/09/24 03:06:40;;;;;;;5.60;5.30;;;;;;;15.64;86.51;101230.63;4418998;32;20133;-69
2021/09/24 03:09:06;;;;;;;5.78;5.45;;;;;;;15.61;86.63;101226.34;4413274;32;20126;-69
2021/09/24 03:11:31;;;;;;;5.43;5.12;;;;;;;15.60;87.50;101223.84;4408483;32;20076;-68
2021/09/24 03:13:57;;;;;;;7.37;6.97;;;;;;;15.47;86.61;101200.78;4422634;32;20508;-66
2021/09/24 03:16:22;;;;;;;5.25;5.00;;;;;;;15.59;86.81;101222.97;4417973;32;20080;-66
2021/09/24 03:18:48;;;;;;;6.00;5.50;;;;;;;15.61;87.50;101233.44;4396399;32;20056;-68
2021/09/24 03:21:13;;;;;;;4.95;4.75;;;;;;;15.60;87.16;101226.47;4422922;32;20134;-67
2021/09/24 03:23:38;;;;;;;5.60;5.30;;;;;;;15.56;87.83;101226.66;4400856;32;20440;-67
2021/09/24 03:26:04;;;;;;;6.37;5.97;;;;;;;15.52;87.17;101217.22;4408302;32;20217;-67
2021/09/24 03:28:30;;;;;;;5.18;4.97;;;;;;;15.52;87.88;101226.97;4406073;32;20361;-67
2021/09/24 03:30:55;;;;;;;7.35;6.85;;;;;;;15.49;88.25;101225.34;4412245;32;20510;-67
2021/09/24 03:33:20;;;;;;;5.05;4.85;;;;;;;15.50;88.36;101229.69;4418262;32;20072;-67
2021/09/24 03:35:46;;;;;;;5.30;5.07;;;;;;;14.43;87.89;101068.16;4413975;32;20538;-68
2021/09/24 03:38:11;;;;;;;5.22;4.93;;;;;;;15.47;87.75;101235.19;4411889;32;20487;-67
2021/09/24 03:40:37;;;;;;;5.40;5.12;;;;;;;15.14;87.70;101175.56;4418104;32;20087;-67
2021/09/24 03:43:02;;;;;;;6.62;6.32;;;;;;;15.38;88.36;101222.56;4409614;32;20081;-67
2021/09/24 03:45:28;;;;;;;5.10;4.90;;;;;;;15.41;88.14;101230.28;4399690;32;20086;-67
2021/09/24 03:47:54;;;;;;;5.20;5.00;;;;;;;15.44;87.87;101234.53;4427477;32;20115;-66
2021/09/24 03:50:19;;;;;;;6.28;5.78;;;;;;;15.41;87.90;101240.84;4411825;32;20068;-66
2021/09/24 03:52:45;;;;;;;5.20;4.85;;;;;;;14.43;88.31;101068.16;4426139;32;20641;-68
2021/09/24 03:55:10;;;;;;;5.43;5.22;;;;;;;15.40;88.84;101223.31;4419713;32;20059;-67
2021/09/24 03:57:35;;;;;;;5.57;5.28;;;;;;;15.33;88.95;101243.16;4419631;32;20675;-67
2021/09/24 04:00:01;;;;;;;6.53;6.22;;;;;;;15.33;89.11;101230.78;4410203;32;20068;-67
2021/09/24 04:02:26;;;;;;;5.20;4.95;;;;;;;15.33;88.13;101228.16;4394272;32;20589;-67
2021/09/24 04:04:52;;;;;;;6.53;6.22;;;;;;;14.29;87.94;101060.25;4412786;32;20376;-67
2021/09/24 04:07:19;;;;;;;6.40;5.70;;;;;;;15.32;88.92;101233.53;4395321;32;20076;-66
2021/09/24 04:09:44;;;;;;;5.70;5.40;;;;;;;15.25;88.97;101233.06;4411998;32;20329;-69
2021/09/24 04:12:10;;;;;;;7.45;6.80;;;;;;;15.29;89.31;101239.00;4404633;32;20318;-69
2021/09/24 04:14:36;;;;;;;5.15;4.85;;;;;;;15.28;89.03;101237.31;4415527;32;20332;-68
2021/09/24 04:17:01;;;;;;;6.90;6.50;;;;;;;15.30;89.23;101243.34;4406835;32;20092;-68
2021/09/24 04:19:27;;;;;;;5.90;5.60;;;;;;;15.31;88.39;101245.03;4407643;32;20072;-68
2021/09/24 04:21:52;;;;;;;6.22;5.93;;;;;;;15.30;89.13;101232.78;4409369;32;20133;-69
2021/09/24 04:24:17;;;;;;;5.45;5.18;;;;;;;15.31;88.41;101245.03;4413595;32;20086;-69
2021/09/24 04:26:44;;;;;;;19.25;18.25;;;;;;;14.40;88.89;101104.50;4383418;32;20076;-68
2021/09/24 04:29:09;;;;;;;5.50;5.10;;;;;;;15.28;89.54;101240.81;4369548;32;20069;-66
2021/09/24 04:31:35;;;;;;;4.90;4.70;;;;;;;15.27;89.42;101238.25;4384133;32;20061;-66
2021/09/24 04:34:00;;;;;;;6.97;6.65;;;;;;;15.16;89.02;101221.28;4378005;32;20065;-67
2021/09/24 04:36:25;;;;;;;5.28;5.05;;;;;;;15.24;89.46;101243.75;4394992;32;20069;-66
2021/09/24 04:38:51;;;;;;;6.85;6.55;;;;;;;15.24;90.07;101243.75;4393485;32;20080;-67
2021/09/24 04:41:16;;;;;;;5.10;4.90;;;;;;;15.26;89.40;101245.34;4390082;32;20477;-68
2021/09/24 04:43:41;;;;;;;5.45;5.20;;;;;;;15.26;89.54;101241.84;4396306;32;20096;-66
2021/09/24 04:46:07;;;;;;;5.57;5.37;;;;;;;15.20;90.10;101242.25;4398853;32;20567;-67
2021/09/24 04:48:32;;;;;;;6.82;6.22;;;;;;;15.24;90.45;101241.94;4400116;32;20447;-67
2021/09/24 04:50:58;;;;;;;6.78;6.47;;;;;;;15.19;89.67;101246.66;4392742;32;20697;-67
2021/09/24 04:53:24;;;;;;;5.20;5.00;;;;;;;15.18;89.67;101255.56;4384620;32;20890;-67
2021/09/24 04:55:49;;;;;;;6.10;5.80;;;;;;;15.20;90.25;101255.47;4397613;32;20379;-67
2021/09/24 04:58:14;;;;;;;5.25;5.05;;;;;;;15.10;89.70;101237.53;4382025;32;20091;-67
2021/09/24 05:00:40;;;;;;;5.05;4.82;;;;;;;15.20;89.83;101252.81;4400992;32;20065;-67
2021/09/24 05:03:05;;;;;;;5.20;4.90;;;;;;;15.22;89.81;101261.50;4385075;32;20231;-67
2021/09/24 05:05:31;;;;;;;5.45;5.12;;;;;;;15.21;90.22;101260.63;4400990;32;20073;-66
2021/09/24 05:07:56;;;;;;;6.57;6.28;;;;;;;15.20;89.87;101263.41;4383138;32;20099;-67
2021/09/24 05:10:21;;;;;;;5.65;5.22;;;;;;;14.96;89.46;101219.87;4393412;32;20147;-67
2021/09/24 05:12:47;;;;;;;5.43;5.18;;;;;;;15.21;89.71;101252.69;4382636;32;20183;-68
2021/09/24 05:15:12;;;;;;;5.00;4.80;;;;;;;15.20;89.93;101251.00;4401795;32;20065;-67
2021/09/24 05:17:37;;;;;;;5.57;5.35;;;;;;;15.16;90.42;101258.28;4385758;32;20084;-67
2021/09/24 05:20:03;;;;;;;6.18;5.87;;;;;;;15.14;89.54;101251.41;4396410;32;20073;-66
2021/09/24 05:22:29;;;;;;;4.90;4.70;;;;;;;15.09;89.86;101248.19;4403899;32;20865;-67
2021/09/24 05:24:54;;;;;;;6.35;6.05;;;;;;;15.08;90.39;101255.28;4379657;32;20539;-67
2021/09/24 05:27:19;;;;;;;5.80;5.20;;;;;;;15.08;90.38;101262.38;4386890;32;20088;-67
2021/09/24 05:29:45;;;;;;;5.93;5.53;;;;;;;15.07;90.63;101263.28;4394457;32;20143;-67
2021/09/24 05:32:13;;;;;;;5.70;5.25;;;;;;;15.02;90.50;101260.09;4413732;32;20107;-67
2021/09/24 05:34:40;;;;;;;5.70;5.30;;;;;;;15.04;90.26;101264.34;4412112;32;20091;-65
2021/09/24 05:37:05;;;;;;;5.93;5.53;;;;;;;15.05;90.23;101260.75;4406119;32;20386;-66
2021/09/24 05:39:30;;;;;;;5.90;5.60;;;;;;;14.98;91.10;101259.44;4411189;32;20137;-65
2021/09/24 05:41:56;;;;;;;6.25;5.95;;;;;;;14.99;90.68;101266.41;4404922;32;20079;-67
2021/09/24 05:44:21;;;;;;;5.60;5.30;;;;;;;15.01;90.77;101258.38;4408451;32;20595;-67
2021/09/24 05:46:46;;;;;;;5.93;5.12;;;;;;;15.03;90.83;101259.12;4421645;32;20077;-67
2021/09/24 05:49:12;;;;;;;5.50;5.20;;;;;;;15.04;90.74;101261.69;4400761;32;20087;-67
2021/09/24 05:51:37;;;;;;;4.93;4.62;;;;;;;15.05;90.88;101258.09;4417875;32;20834;-67
2021/09/24 05:54:02;;;;;;;6.95;6.55;;;;;;;15.07;89.71;101261.50;4403588;32;20061;-66
2021/09/24 05:56:28;;;;;;;5.00;4.80;;;;;;;15.08;89.79;101265.84;4402388;32;20071;-65
2021/09/24 05:58:53;;;;;;;6.78;6.32;;;;;;;15.08;89.20;101270.28;4422696;32;20083;-67
2021/09/24 06:01:19;;;;;;;5.60;5.32;;;;;;;15.07;89.36;101263.28;4407421;32;20069;-65
2021/09/24 06:03:44;;;;;;;5.30;5.05;;;;;;;14.11;89.40;101107.09;4403154;32;20068;-68
2021/09/24 06:06:09;;;;;;;5.65;5.35;;;;;;;15.03;89.66;101259.97;4398066;32;20069;-67
2021/09/24 06:08:35;;;;;;;5.40;5.07;;;;;;;15.02;90.21;101254.81;4421714;32;20068;-65
2021/09/24 06:11:00;;;;;;;6.97;6.68;;;;;;;15.01;89.36;101248.66;4400137;32;20570;-69
2021/09/24 06:13:26;;;;;;;5.62;5.25;;;;;;;15.02;89.79;101254.81;4402323;32;20065;-67
2021/09/24 06:15:51;;;;;;;6.85;6.55;;;;;;;15.03;90.03;101253.84;4404676;32;20076;-67
2021/09/24 06:18:16;;;;;;;5.05;4.85;;;;;;;15.04;89.35;101258.22;4411068;32;20547;-68
2021/09/24 06:20:42;;;;;;;5.30;5.10;;;;;;;15.11;89.01;101259.50;4407729;32;20134;-67
2021/09/24 06:23:07;;;;;;;5.12;4.93;;;;;;;15.07;88.90;101260.66;4407438;32;20088;-67
2021/09/24 06:25:33;;;;;;;5.47;5.12;;;;;;;15.14;88.68;101260.19;4407427;32;20483;-68
2021/09/24 06:27:59;;;;;;;9.73;6.65;;;;;;;15.14;88.22;101262.81;4408847;32;20108;-68
2021/09/24 06:30:24;;;;;;;5.55;5.25;;;;;;;15.15;88.08;101264.53;4419409;32;20099;-65
2021/09/24 06:32:50;;;;;;;5.28;5.07;;;;;;;15.20;87.93;101261.59;4421033;32;20175;-65
2021/09/24 06:35:15;;;;;;;5.47;5.18;;;;;;;15.24;88.35;101259.63;4415334;32;20076;-65
2021/09/24 06:37:41;;;;;;;5.35;4.85;;;;;;;14.19;88.06;101094.28;4421991;32;20076;-68
2021/09/24 06:40:07;;;;;;;5.70;5.40;;;;;;;15.19;88.57;101251.09;4417173;32;20320;-65
2021/09/24 06:42:33;;;;;;;5.00;4.80;;;;;;;15.29;88.42;101263.63;4419123;32;20088;-66
2021/09/24 06:44:58;;;;;;;6.00;5.60;;;;;;;15.34;88.13;101260.72;4402820;32;20084;-65
2021/09/24 06:47:24;;;;;;;5.15;4.95;;;;;;;15.41;86.92;101262.03;4417933;32;20079;-65
2021/09/24 06:49:50;;;;;;;6.43;6.12;;;;;;;15.47;87.03;101256.34;4418036;32;20182;-65
2021/09/24 06:52:15;;;;;;;5.57;5.18;;;;;;;15.42;87.00;101254.97;4413136;32;20082;-68
2021/09/24 06:54:40;;;;;;;5.10;4.85;;;;;;;15.20;86.44;101227.22;4425005;32;20072;-66
2021/09/24 06:57:06;;;;;;;6.22;5.82;;;;;;;15.55;86.98;101269.06;4406638;32;20083;-67
2021/09/24 06:59:32;;;;;;;5.65;5.35;;;;;;;15.55;86.27;101254.09;4425669;32;20412;-67
2021/09/24 07:01:57;;;;;;;6.68;6.37;;;;;;;15.56;86.37;101255.75;4408170;32;20069;-66
2021/09/24 07:04:22;;;;;;;5.25;5.03;;;;;;;15.62;85.94;101261.63;4402321;32;20065;-65
2021/09/24 07:06:51;;;;;;;6.07;5.78;;;;;;;15.57;86.17;101222.22;4402171;32;20081;-69
2021/09/24 07:09:16;;;;;;;5.70;5.40;;;;;;;15.78;85.68;101259.69;4408617;32;20129;-68
2021/09/24 07:11:42;;;;;;;4.93;4.72;;;;;;;15.92;84.77;101257.00;4422734;32;20069;-68
2021/09/24 07:14:12;;;;;;;5.65;5.35;;;;;;;15.95;84.43;101255.94;4409620;32;20149;-67
2021/09/24 07:16:37;;;;;;;5.95;5.55;;;;;;;16.03;84.34;101260.72;4426213;32;20510;-69
2021/09/24 07:19:03;;;;;;;7.03;6.68;;;;;;;16.02;84.28;101256.41;4396498;32;20097;-68
2021/09/24 07:21:28;;;;;;;6.03;5.62;;;;;;;15.98;84.36;101260.19;4408277;32;20609;-68
2021/09/24 07:23:53;;;;;;;7.18;6.87;;;;;;;15.94;84.04;101265.69;4400854;32;21009;-69
2021/09/24 07:26:19;;;;;;;6.30;5.90;;;;;;;15.94;84.47;101243.66;4397290;32;20571;-67
2021/09/24 07:28:44;;;;;;;5.53;5.10;;;;;;;16.20;83.33;101267.56;4398380;32;20111;-68
2021/09/24 07:31:10;;;;;;;5.43;5.12;;;;;;;15.67;83.26;101162.44;4410361;32;20084;-69
2021/09/24 07:33:35;;;;;;;6.32;5.93;;;;;;;16.40;82.01;101267.06;4414863;32;20179;-68
2021/09/24 07:36:01;;;;;;;6.97;6.57;;;;;;;16.47;81.95;101264.84;4407886;32;20082;-72
2021/09/24 07:38:26;;;;;;;5.03;4.72;;;;;;;16.51;81.96;101268.97;4396652;32;20185;-70
2021/09/24 07:40:52;;;;;;;6.87;6.57;;;;;;;15.43;79.93;101079.44;4415222;32;20072;-70
2021/09/24 07:43:17;;;;;;;5.65;5.37;;;;;;;16.50;80.80;101268.13;4411866;32;20084;-70
2021/09/24 07:45:42;;;;;;;5.40;5.10;;;;;;;16.50;80.12;101280.56;4417784;32;20082;-70
2021/09/24 07:48:08;;;;;;;5.32;5.12;;;;;;;16.56;79.93;101274.84;4405852;32;20088;-70
2021/09/24 07:50:33;;;;;;;5.07;4.87;;;;;;;16.39;79.81;101241.53;4413625;32;20884;-70
2021/09/24 07:52:59;;;;;;;7.28;6.93;;;;;;;16.64;79.41;101280.44;4395756;32;20112;-69
2021/09/24 07:55:24;;;;;;;5.72;5.43;;;;;;;16.60;79.17;101270.16;4401620;32;21058;-69
2021/09/24 07:57:55;;;;;;;5.75;5.35;;;;;;;16.68;79.48;101268.69;4405921;32;20177;-68
2021/09/24 08:00:21;;;;;;;5.68;5.30;;;;;;;16.62;78.80;101270.87;4428759;32;20072;-71
2021/09/24 08:02:47;;;;;;;6.30;5.97;;;;;;;16.68;79.25;101279.28;4421247;32;20079;-72
2021/09/24 08:05:12;;;;;;;5.68;5.37;;;;;;;16.52;80.23;101271.53;4405755;32;20072;-73
2021/09/24 08:07:38;;;;;;;6.30;6.00;;;;;;;16.64;79.73;101287.56;4397938;32;20067;-72
2021/09/24 08:10:04;;;;;;;7.40;6.97;;;;;;;16.64;79.06;101285.75;4410773;32;20094;-70
2021/09/24 08:12:29;;;;;;;5.60;5.30;;;;;;;16.63;78.86;101294.63;4413266;32;20072;-72
2021/09/24 08:14:54;;;;;;;7.28;6.78;;;;;;;16.63;78.63;101284.03;4403748;32;20820;-72
2021/09/24 08:17:20;;;;;;;5.78;5.25;;;;;;;16.63;79.19;101292.00;4411401;32;20076;-72
2021/09/24 08:19:45;;;;;;;5.78;5.45;;;;;;;16.74;79.31;101286.81;4413688;32;20068;-69
2021/09/24 08:22:10;;;;;;;5.55;5.25;;;;;;;17.01;78.30;101306.25;4410232;32;20060;-72
2021/09/24 08:24:36;;;;;;;7.12;6.37;;;;;;;16.73;77.51;101239.19;4427004;32;20087;-72
2021/09/24 08:27:01;;;;;;;7.35;6.95;;;;;;;17.20;77.32;101303.16;4410000;32;20068;-71
2021/09/24 08:29:27;;;;;;;6.65;5.97;;;;;;;17.10;77.42;101303.81;4415455;32;20090;-72
2021/09/24 08:31:52;;;;;;;7.15;6.80;;;;;;;17.02;76.46;101281.41;4410137;32;20502;-71
2021/09/24 08:34:17;;;;;;;5.75;5.45;;;;;;;17.21;76.76;101296.91;4418804;32;20082;-71
2021/09/24 08:36:43;;;;;;;5.80;5.50;;;;;;;17.38;77.35;101299.22;4417887;32;20089;-72
2021/09/24 08:39:08;;;;;;;6.20;5.80;;;;;;;17.54;76.18;101296.31;4412083;32;20516;-72
2021/09/24 08:41:34;;;;;;;6.05;5.65;;;;;;;17.61;75.44;101294.06;4427679;32;20065;-72
2021/09/24 08:43:59;;;;;;;7.30;6.90;;;;;;;17.75;75.54;101296.53;4413277;32;20082;-72
2021/09/24 08:46:25;;;;;;;6.25;5.90;;;;;;;17.71;76.10;101287.09;4419412;32;20076;-72
2021/09/24 08:48:51;;;;;;;6.12;5.82;;;;;;;17.74;75.44;101302.81;4417351;32;20590;-71
2021/09/24 08:51:16;;;;;;;6.28;5.97;;;;;;;17.86;74.83;101307.28;4412411;32;20060;-70
2021/09/24 08:53:41;;;;;;;5.43;5.12;;;;;;;18.22;74.80;101305.50;4415008;32;20064;-69
2021/09/24 08:56:07;;;;;;;5.55;5.32;;;;;;;18.32;73.84;101282.59;4401993;32;20908;-68
2021/09/24 08:58:33;;;;;;;5.50;5.20;;;;;;;18.30;72.63;101300.47;4397738;32;20090;-70
2021/09/24 09:00:58;;;;;;;7.10;6.70;;;;;;;18.61;73.37;101299.94;4413169;32;20219;-69
2021/09/24 09:03:23;;;;;;;5.53;5.22;;;;;;;18.94;72.27;101291.19;4413383;32;20669;-69
2021/09/24 09:05:53;;;;;;;6.37;6.07;;;;;;;18.95;69.65;101262.78;4412314;32;20095;-69
2021/09/24 09:08:28;;;;;;;5.18;4.97;;;;;;;19.10;69.38;101294.34;4415063;32;20086;-70
2021/09/24 09:11:06;;;;;;;7.15;6.78;;;;;;;19.48;68.88;101297.59;4411799;32;20095;-69
2021/09/24 09:13:32;;;;;;;6.43;5.93;;;;;;;19.63;67.10;101295.50;4417325;32;20595;-69
2021/09/24 09:16:00;;;;;;;6.80;6.50;;;;;;;19.65;66.73;101291.75;4413802;32;20083;-69
2021/09/24 09:18:25;;;;;;;5.68;5.25;;;;;;;19.93;66.08;101273.53;4417371;32;20083;-69
2021/09/24 09:20:51;;;;;;;6.45;6.15;;;;;;;20.46;64.73;101278.00;4395092;32;20218;-69
2021/09/24 09:23:17;;;;;;;5.55;5.28;;;;;;;20.55;63.05;101271.91;4414516;32;20061;-69
2021/09/24 09:25:43;;;;;;;6.00;5.70;;;;;;;20.76;62.82;101284.41;4418399;32;20175;-70
2021/09/24 09:28:17;;;;;;;5.87;5.57;;;;;;;21.21;61.98;101274.22;4412220;32;20556;-71
2021/09/24 09:30:43;;;;;;;5.70;5.40;;;;;;;21.30;60.81;101273.38;4428545;32;21226;-71
2021/09/24 09:33:15;;;;;;;6.03;5.72;;;;;;;21.23;61.03;101271.41;4391488;32;20069;-69
2021/09/24 09:35:53;;;;;;;6.45;6.15;;;;;;;21.35;59.83;101275.66;4405376;32;21008;-71
2021/09/24 09:38:21;;;;;;;6.10;5.80;;;;;;;21.16;60.30;101267.59;4413264;32;20895;-71
2021/09/24 09:40:50;;;;;;;6.32;6.03;;;;;;;21.10;60.35;101275.13;4416492;32;20867;-71
2021/09/24 09:43:20;;;;;;;6.18;5.87;;;;;;;21.15;59.85;101273.87;4394853;32;20103;-71
2021/09/24 09:45:46;;;;;;;6.40;5.90;;;;;;;20.80;60.58;101219.13;4399459;32;20575;-70
2021/09/24 09:48:12;;;;;;;6.25;5.95;;;;;;;21.28;59.75;101269.16;4393846;32;20069;-69
2021/09/24 09:50:38;;;;;;;5.97;5.68;;;;;;;21.48;59.39;101257.59;4412120;32;20076;-69
2021/09/24 09:53:05;;;;;;;7.85;7.45;;;;;;;21.96;58.42;101265.81;4405950;32;20091;-70
2021/09/24 09:55:32;;;;;;;5.80;5.50;;;;;;;22.32;56.38;101274.97;4403892;32;20083;-70
2021/09/24 09:57:59;;;;;;;7.55;6.68;;;;;;;22.11;56.73;101259.06;4411621;32;20203;-70
2021/09/24 10:00:26;;;;;;;6.43;6.05;;;;;;;22.09;56.62;101266.34;4414035;32;20163;-71
2021/09/24 10:03:07;;;;;;;7.43;7.03;;;;;;;22.16;56.19;101267.47;4399291;32;20064;-70
2021/09/24 10:05:51;;;;;;;6.90;6.50;;;;;;;22.01;57.03;101251.03;4410140;32;20076;-70
2021/09/24 10:08:17;;;;;;;6.30;6.00;;;;;;;22.15;57.13;101256.91;4393828;32;20067;-71
2021/09/24 10:10:55;;;;;;;6.10;5.80;;;;;;;21.98;55.73;101235.28;4398273;32;20171;-70
2021/09/24 10:13:20;;;;;;;6.62;6.20;;;;;;;21.73;57.69;101244.72;4418407;32;20211;-70
2021/09/24 10:15:46;;;;;;;6.30;6.00;;;;;;;21.43;57.27;101248.28;4416271;32;20080;-70
2021/09/24 10:18:11;;;;;;;6.40;6.00;;;;;;;21.42;57.41;101244.75;4402915;32;20899;-70
2021/09/24 10:20:37;;;;;;;6.30;6.00;;;;;;;21.46;58.27;101245.34;4404079;32;20079;-70
2021/09/24 10:23:02;;;;;;;7.62;7.12;;;;;;;21.26;58.99;101236.44;4408392;32;20085;-70
2021/09/24 10:25:28;;;;;;;6.10;5.80;;;;;;;20.15;59.32;101078.06;4405107;32;20084;-70
2021/09/24 10:27:53;;;;;;;8.77;8.23;;;;;;;21.27;58.71;101243.47;4410675;32;21523;-70
2021/09/24 10:30:24;;;;;;;6.18;5.87;;;;;;;20.76;59.79;101199.03;4421170;32;20068;-70
2021/09/24 10:33:00;;;;;;;7.45;6.95;;;;;;;20.85;59.61;101177.75;4415626;32;20957;-70
2021/09/24 10:35:54;;;;;;;5.97;5.57;;;;;;;19.56;58.34;100938.37;4416351;32;20587;-70
2021/09/24 10:38:20;;;;;;;7.10;6.50;;;;;;;21.71;58.15;101242.16;4423446;32;20068;-70
2021/09/24 10:41:03;;;;;;;6.35;6.03;;;;;;;21.89;58.10;101238.81;4394427;32;20080;-70
2021/09/24 10:43:42;;;;;;;6.03;5.72;;;;;;;22.32;56.45;101215.28;4394745;32;20094;-70
2021/09/24 10:46:33;;;;;;;6.72;6.32;;;;;;;22.56;53.53;101231.69;4428903;32;20069;-69
2021/09/24 10:49:19;;;;;;;8.02;7.53;;;;;;;22.45;54.65;101243.41;4426631;32;20163;-69
2021/09/24 10:51:45;;;;;;;6.25;5.95;;;;;;;21.73;55.99;101169.91;4420229;32;20079;-69
2021/09/24 10:54:16;;;;;;;6.30;6.00;;;;;;;21.91;56.24;101242.19;4396701;32;21104;-68
2021/09/24 10:56:41;;;;;;;7.50;7.05;;;;;;;21.63;56.72;101238.47;4410445;32;20119;-70
2021/09/24 10:59:20;;;;;;;6.32;6.03;;;;;;;21.58;57.18;101248.75;4410788;32;20194;-69
2021/09/24 11:01:46;;;;;;;5.53;5.30;;;;;;;21.39;57.49;101233.50;4412882;32;20179;-68
2021/09/24 11:04:12;;;;;;;6.40;6.00;;;;;;;21.17;58.03;101242.56;4411289;32;20080;-68
2021/09/24 11:06:45;;;;;;;5.62;5.43;;;;;;;21.02;59.03;101237.63;4428623;32;20700;-69
2021/09/24 11:09:13;;;;;;;5.97;5.62;;;;;;;20.96;59.86;101239.97;4424254;32;20074;-68
2021/09/24 11:11:40;;;;;;;5.45;5.22;;;;;;;21.01;59.54;101230.59;4417199;32;20134;-69
2021/09/24 11:14:26;;;;;;;6.15;5.85;;;;;;;21.21;58.99;101238.66;4418867;32;20423;-69
2021/09/24 11:16:53;;;;;;;7.15;6.80;;;;;;;21.39;58.15;101233.50;4414965;32;20660;-70
2021/09/24 11:19:30;;;;;;;5.82;5.53;;;;;;;21.63;57.57;101225.12;4411747;32;20088;-70
2021/09/24 11:21:58;;;;;;;7.37;6.97;;;;;;;21.41;57.66;101232.41;4424790;32;20064;-70